Time;durP1;ratioP1;P1;durP2;ratioP2;P2;SDS_P1;SDS_P2;PMS_P1;PMS_P2;Temp;Humidity;BMP_temperature;BMP_pressure;BME280_temperature;BME280_humidity;BME280_pressure;Samples;Min_cycle;Max_cycle;Signal;HPM_P1;HPM_P2
2022/10/28 00:01:11;;;;;;;13.87;12.47;;;;;;;7.77;100.00;97980.91;4986273;28;20503;-68
2022/10/28 00:03:43;;;;;;;13.50;12.27;;;;;;;7.65;100.00;97976.78;4984977;28;20235;-69
2022/10/28 00:06:13;;;;;;;13.47;12.30;;;;;;;7.73;100.00;97979.50;4988238;28;20568;-67
2022/10/28 00:08:41;;;;;;;13.40;12.23;;;;;;;7.63;100.00;97976.94;4988276;28;20235;-66
2022/10/28 00:11:11;;;;;;;12.53;11.53;;;;;;;7.59;100.00;97970.31;4982804;28;20778;-68
2022/10/28 00:13:41;;;;;;;14.23;12.90;;;;;;;7.55;100.00;97961.00;4984892;28;20216;-66
2022/10/28 00:16:13;;;;;;;14.53;13.10;;;;;;;7.56;100.00;97953.94;4986561;28;20208;-69
2022/10/28 00:18:44;;;;;;;14.67;13.37;;;;;;;7.64;100.00;97961.94;4987266;28;21034;-69
2022/10/28 00:21:15;;;;;;;15.87;14.57;;;;;;;7.61;100.00;97962.22;4986928;28;21315;-67
2022/10/28 00:23:43;;;;;;;14.60;13.30;;;;;;;7.61;100.00;97952.53;4986813;28;20203;-66
2022/10/28 00:26:14;;;;;;;14.33;13.03;;;;;;;7.62;100.00;97958.59;4985688;28;20980;-67
2022/10/28 00:28:44;;;;;;;14.60;13.03;;;;;;;7.59;100.00;97966.81;4988564;28;20226;-64
2022/10/28 00:31:14;;;;;;;13.20;12.07;;;;;;;7.60;100.00;97965.84;4989469;28;20220;-65
2022/10/28 00:33:43;;;;;;;13.43;12.23;;;;;;;7.61;100.00;97965.72;4988587;28;20228;-67
2022/10/28 00:36:14;;;;;;;13.03;11.90;;;;;;;7.52;100.00;97966.56;4990300;28;20212;-65
2022/10/28 00:38:44;;;;;;;11.67;10.57;;;;;;;7.51;100.00;97971.00;4989192;28;20230;-67
2022/10/28 00:41:15;;;;;;;11.93;10.77;;;;;;;7.51;100.00;97962.25;4990233;28;20216;-68
2022/10/28 00:43:44;;;;;;;13.50;12.40;;;;;;;7.43;100.00;97965.63;4988778;28;20205;-67
2022/10/28 00:46:20;;;;;;;12.37;10.63;;;;;;;7.37;100.00;97971.47;4987546;28;20204;-68
2022/10/28 00:48:54;;;;;;;12.90;11.57;;;;;;;7.29;100.00;97966.09;4990169;28;20207;-67
2022/10/28 00:51:23;;;;;;;11.77;10.87;;;;;;;7.29;100.00;97968.72;4988700;28;20203;-69
2022/10/28 00:53:52;;;;;;;11.77;10.53;;;;;;;7.18;100.00;97972.34;4988742;28;20460;-65
2022/10/28 00:56:20;;;;;;;10.27;9.37;;;;;;;7.10;100.00;97959.91;4988701;28;20530;-68
2022/10/28 00:58:49;;;;;;;10.27;9.47;;;;;;;7.07;100.00;97968.09;4990141;28;20224;-69
2022/10/28 01:01:17;;;;;;;12.17;10.97;;;;;;;7.07;100.00;97968.91;4991401;28;20212;-67
2022/10/28 01:03:45;;;;;;;10.73;9.93;;;;;;;6.99;100.00;97957.41;4990172;28;20196;-69
2022/10/28 01:06:15;;;;;;;10.07;9.37;;;;;;;6.89;100.00;97958.28;4988350;28;20204;-66
2022/10/28 01:08:43;;;;;;;9.10;8.30;;;;;;;6.94;100.00;97956.03;4988284;28;20224;-68
2022/10/28 01:11:30;;;;;;;9.63;8.83;;;;;;;6.93;100.00;97962.28;4989558;28;20215;-69
2022/10/28 01:14:12;;;;;;;9.93;9.23;;;;;;;6.82;100.00;97970.34;4987928;28;20227;-68
2022/10/28 01:16:48;;;;;;;11.37;10.47;;;;;;;6.77;100.00;97975.22;4989454;28;20196;-69
2022/10/28 01:19:55;;;;;;;9.73;8.83;;;;;;;6.76;100.00;97974.38;4989054;28;20655;-68
2022/10/28 01:22:26;;;;;;;8.33;7.67;;;;;;;6.77;100.00;97975.22;4988626;28;20451;-68
2022/10/28 01:25:12;;;;;;;8.53;7.80;;;;;;;6.70;100.00;97974.94;4990700;28;23118;-66
2022/10/28 01:28:11;;;;;;;10.47;8.27;;;;;;;6.68;100.00;97976.06;4988626;28;20235;-68
2022/10/28 01:31:04;;;;;;;8.07;6.67;;;;;;;6.62;100.00;97983.53;4946577;28;20210;-68
2022/10/28 01:33:35;;;;;;;7.57;6.80;;;;;;;6.58;100.00;97979.50;4947460;28;22109;-69
2022/10/28 01:36:11;;;;;;;7.40;6.83;;;;;;;6.58;100.00;97982.16;4947878;28;20232;-66
2022/10/28 01:38:44;;;;;;;13.60;6.87;;;;;;;6.51;100.00;97987.16;4945508;28;20236;-68
2022/10/28 01:41:16;;;;;;;9.17;6.60;;;;;;;6.50;100.00;97988.13;4946673;28;20205;-69
2022/10/28 01:43:48;;;;;;;6.30;5.90;;;;;;;6.58;100.00;97982.16;4947055;28;20213;-68
2022/10/28 01:46:19;;;;;;;6.93;6.43;;;;;;;6.60;100.00;97974.13;4945427;28;21094;-67
2022/10/28 01:48:53;;;;;;;6.87;6.40;;;;;;;6.62;100.00;97985.34;4946290;28;21243;-67
2022/10/28 01:51:24;;;;;;;14.47;8.30;;;;;;;6.68;100.00;97973.44;4943235;28;20301;-67
2022/10/28 01:53:54;;;;;;;7.13;6.57;;;;;;;6.68;100.00;97965.53;4945530;28;20224;-65
2022/10/28 01:56:25;;;;;;;7.90;7.40;;;;;;;6.78;100.00;97966.34;4946423;28;20216;-64
2022/10/28 01:58:54;;;;;;;8.43;7.77;;;;;;;6.79;100.00;97968.00;4944183;28;20293;-66
2022/10/28 02:01:22;;;;;;;8.90;8.30;;;;;;;6.83;100.00;97964.13;4942923;28;21335;-68
2022/10/28 02:03:53;;;;;;;9.03;8.43;;;;;;;6.78;100.00;97966.34;4944807;28;20267;-67
2022/10/28 02:06:24;;;;;;;10.07;9.07;;;;;;;6.83;100.00;97973.84;4961667;28;20240;-67
2022/10/28 02:09:06;;;;;;;9.13;8.43;;;;;;;6.88;100.00;97972.44;4987275;28;20204;-67
2022/10/28 02:11:50;;;;;;;9.30;8.67;;;;;;;6.94;100.00;97971.03;4985481;28;20320;-63
2022/10/28 02:14:29;;;;;;;10.13;9.23;;;;;;;6.90;100.00;97967.03;4987068;28;20242;-67
2022/10/28 02:17:02;;;;;;;9.37;8.67;;;;;;;6.81;100.00;97968.69;4987907;28;20739;-66
2022/10/28 02:19:39;;;;;;;8.90;8.10;;;;;;;6.78;100.00;97967.16;4986513;28;20209;-65
2022/10/28 02:22:17;;;;;;;9.63;8.90;;;;;;;6.72;100.00;97959.00;4985477;28;20210;-64
2022/10/28 02:24:51;;;;;;;9.33;8.53;;;;;;;6.67;100.00;97948.88;4986763;28;20706;-67
2022/10/28 02:27:26;;;;;;;9.77;8.77;;;;;;;6.63;100.00;97951.00;4986437;28;20277;-67
2022/10/28 02:29:59;;;;;;;9.00;8.37;;;;;;;6.57;100.00;97953.34;4988326;28;21070;-66
2022/10/28 02:32:30;;;;;;;9.30;8.40;;;;;;;6.49;100.00;97946.13;4988390;28;20203;-66
2022/10/28 02:35:01;;;;;;;8.93;8.17;;;;;;;6.46;100.00;97939.34;4986645;28;20224;-65
2022/10/28 02:37:32;;;;;;;8.47;7.83;;;;;;;6.48;100.00;97945.31;4986220;28;20224;-63
2022/10/28 02:40:04;;;;;;;8.63;8.00;;;;;;;6.47;100.00;97937.53;4986979;28;20215;-65
2022/10/28 02:42:36;;;;;;;9.37;8.67;;;;;;;6.53;100.00;97941.44;4989170;28;20220;-68
2022/10/28 02:45:08;;;;;;;12.20;10.97;;;;;;;6.58;100.00;97939.19;4986995;28;20199;-65
2022/10/28 02:47:38;;;;;;;10.83;9.90;;;;;;;6.51;100.00;97933.66;4986609;28;20227;-66
2022/10/28 02:50:10;;;;;;;11.60;10.60;;;;;;;6.52;100.00;97935.31;4987741;28;20323;-66
2022/10/28 02:52:40;;;;;;;10.37;9.47;;;;;;;6.51;100.00;97931.03;4987721;28;20200;-67
2022/10/28 02:55:09;;;;;;;11.97;10.87;;;;;;;6.47;100.00;97927.84;4987912;28;20238;-65
2022/10/28 02:57:39;;;;;;;16.63;14.47;;;;;;;6.46;100.00;97930.59;4985133;28;20231;-63
2022/10/28 03:00:10;;;;;;;23.57;19.67;;;;;;;6.56;100.00;97930.59;4986944;28;20223;-65
2022/10/28 03:02:38;;;;;;;26.73;20.60;;;;;;;6.53;100.00;97926.44;4986330;28;20221;-66
2022/10/28 03:05:09;;;;;;;27.00;21.73;;;;;;;6.47;100.00;97922.59;4989521;28;20899;-68
2022/10/28 03:07:37;;;;;;;24.50;20.43;;;;;;;6.51;100.00;97929.22;4984920;28;20420;-65
2022/10/28 03:10:06;;;;;;;19.60;17.50;;;;;;;6.59;100.00;97932.97;4988349;28;20216;-68
2022/10/28 03:12:35;;;;;;;18.87;15.90;;;;;;;6.60;100.00;97932.00;4985545;28;20690;-65
2022/10/28 03:15:03;;;;;;;17.77;15.43;;;;;;;6.66;100.00;97937.53;4985946;28;20227;-68
2022/10/28 03:17:31;;;;;;;14.60;13.30;;;;;;;6.61;100.00;97942.38;4986144;28;22384;-68
2022/10/28 03:20:00;;;;;;;12.63;11.53;;;;;;;6.57;100.00;97948.88;4987685;28;20207;-65
2022/10/28 03:22:29;;;;;;;11.13;10.03;;;;;;;6.48;100.00;97944.47;4987369;28;20297;-65
2022/10/28 03:24:58;;;;;;;9.23;8.43;;;;;;;6.49;100.00;97939.06;4986469;28;20205;-67
2022/10/28 03:27:26;;;;;;;8.93;8.13;;;;;;;6.53;100.00;97936.97;4985752;28;20239;-66
2022/10/28 03:29:54;;;;;;;9.07;8.30;;;;;;;6.49;100.00;97943.50;4986466;28;20215;-66
2022/10/28 03:32:22;;;;;;;8.20;7.40;;;;;;;6.54;100.00;97941.28;4986598;28;20211;-66
2022/10/28 03:34:50;;;;;;;8.07;7.47;;;;;;;6.55;100.00;97934.22;4985727;28;20228;-64
2022/10/28 03:37:19;;;;;;;7.00;6.50;;;;;;;6.53;100.00;97936.16;4982958;28;20232;-65
2022/10/28 03:39:48;;;;;;;7.87;7.27;;;;;;;6.56;100.00;97933.25;4980357;28;20226;-64
2022/10/28 03:42:16;;;;;;;7.50;6.90;;;;;;;6.59;100.00;97930.31;4985525;28;20210;-65
2022/10/28 03:44:45;;;;;;;8.00;7.30;;;;;;;6.58;100.00;97931.31;4985653;28;20219;-64
2022/10/28 03:47:13;;;;;;;6.53;6.03;;;;;;;6.60;100.00;97924.09;4984375;28;20227;-63
2022/10/28 03:49:41;;;;;;;7.40;6.90;;;;;;;6.64;100.00;97912.31;4981474;28;21057;-64
2022/10/28 03:52:09;;;;;;;7.10;6.60;;;;;;;6.66;100.00;97915.63;4980601;28;20213;-63
2022/10/28 03:54:37;;;;;;;7.20;6.70;;;;;;;6.68;100.00;97916.31;4982798;28;20797;-68
2022/10/28 03:57:07;;;;;;;7.97;7.30;;;;;;;6.72;100.00;97916.88;4983861;28;21108;-63
2022/10/28 03:59:35;;;;;;;9.47;8.50;;;;;;;6.77;100.00;97919.91;4983993;28;20207;-66
2022/10/28 04:02:03;;;;;;;7.90;7.30;;;;;;;6.77;100.00;97925.19;4988130;28;20444;-63
2022/10/28 04:04:32;;;;;;;8.07;7.37;;;;;;;6.79;100.00;97928.50;4988502;28;20207;-65
2022/10/28 04:07:00;;;;;;;9.30;8.50;;;;;;;6.82;100.00;97925.56;4986258;28;20224;-66
2022/10/28 04:09:28;;;;;;;10.33;8.73;;;;;;;6.86;100.00;97934.84;4985718;28;20208;-65
2022/10/28 04:11:56;;;;;;;9.87;9.03;;;;;;;6.92;100.00;97936.91;4987589;28;20211;-65
2022/10/28 04:14:26;;;;;;;12.43;9.87;;;;;;;7.00;100.00;97933.59;4985746;28;20815;-65
2022/10/28 04:16:54;;;;;;;11.23;10.17;;;;;;;7.06;100.00;97930.38;4987314;28;20232;-66
2022/10/28 04:19:22;;;;;;;10.37;9.37;;;;;;;7.09;100.00;97930.09;4986944;28;20849;-65
2022/10/28 04:21:50;;;;;;;11.50;10.40;;;;;;;7.10;100.00;97933.56;4989728;28;21144;-59
2022/10/28 04:24:18;;;;;;;11.90;10.73;;;;;;;7.15;100.00;97928.69;4987924;28;20211;-58
2022/10/28 04:26:46;;;;;;;11.80;10.70;;;;;;;7.19;100.00;97931.84;4990063;28;20235;-60
2022/10/28 04:29:15;;;;;;;11.50;10.40;;;;;;;7.15;100.00;97926.06;4989441;28;20201;-62
2022/10/28 04:31:44;;;;;;;12.00;10.70;;;;;;;7.14;100.00;97934.09;4988551;28;20219;-62
2022/10/28 04:34:18;;;;;;;11.13;10.13;;;;;;;7.17;100.00;97936.44;4984040;28;20315;-67
2022/10/28 04:36:46;;;;;;;10.13;9.20;;;;;;;7.14;100.00;97934.09;4984396;28;20571;-65
2022/10/28 04:39:14;;;;;;;9.57;8.70;;;;;;;7.16;100.00;97934.78;4985313;28;20333;-68
2022/10/28 04:41:42;;;;;;;12.20;11.23;;;;;;;7.12;100.00;97934.25;4985869;28;20240;-63
2022/10/28 04:44:10;;;;;;;10.37;9.53;;;;;;;7.09;100.00;97931.91;4987718;28;20242;-63
2022/10/28 04:46:39;;;;;;;10.20;9.40;;;;;;;7.06;100.00;97930.38;4988151;28;20434;-68
2022/10/28 04:49:09;;;;;;;10.67;9.67;;;;;;;7.06;100.00;97926.91;4988137;28;20399;-65
2022/10/28 04:51:37;;;;;;;11.57;10.33;;;;;;;7.05;100.00;97927.91;4988193;28;20197;-67
2022/10/28 04:54:05;;;;;;;11.30;10.20;;;;;;;7.09;100.00;97929.28;4988622;28;20711;-67
2022/10/28 04:56:33;;;;;;;12.70;10.50;;;;;;;7.02;100.00;97928.19;4984519;28;20281;-67
2022/10/28 04:59:02;;;;;;;12.07;10.73;;;;;;;7.00;100.00;97932.72;4983448;28;20208;-66
2022/10/28 05:01:30;;;;;;;17.97;12.70;;;;;;;6.98;100.00;97934.69;4988608;28;20887;-66
2022/10/28 05:03:58;;;;;;;17.03;13.43;;;;;;;7.08;100.00;97932.88;4987388;28;20211;-65
2022/10/28 05:06:28;;;;;;;17.00;14.50;;;;;;;7.09;100.00;97932.72;4988329;28;20216;-67
2022/10/28 05:08:56;;;;;;;17.90;16.00;;;;;;;7.06;100.00;97932.19;4986599;28;20212;-64
2022/10/28 05:11:24;;;;;;;20.43;18.07;;;;;;;7.05;100.00;97944.53;4987664;28;20292;-66
2022/10/28 05:13:53;;;;;;;19.77;17.67;;;;;;;7.04;100.00;97942.84;4989104;28;20714;-67
2022/10/28 05:16:21;;;;;;;25.97;20.23;;;;;;;7.02;100.00;97944.81;4986776;28;20232;-64
2022/10/28 05:18:49;;;;;;;31.10;20.90;;;;;;;7.02;100.00;97947.44;4989690;28;20583;-65
2022/10/28 05:21:17;;;;;;;31.03;20.83;;;;;;;7.01;100.00;97955.47;4984308;28;20690;-65
2022/10/28 05:23:47;;;;;;;21.87;17.27;;;;;;;6.99;100.00;97953.00;4987752;28;20215;-68
2022/10/28 05:26:15;;;;;;;21.30;16.33;;;;;;;6.93;100.00;97946.47;4987591;28;20529;-66
2022/10/28 05:28:43;;;;;;;22.33;15.27;;;;;;;6.90;100.00;97949.41;4983354;28;20832;-68
2022/10/28 05:31:12;;;;;;;23.13;15.53;;;;;;;6.90;100.00;97948.59;4989503;28;20218;-67
2022/10/28 05:33:40;;;;;;;17.13;12.67;;;;;;;6.85;100.00;97946.38;4989588;28;21273;-66
2022/10/28 05:36:08;;;;;;;15.10;12.50;;;;;;;6.75;100.00;97941.09;4988574;28;20220;-64
2022/10/28 05:38:36;;;;;;;15.50;12.13;;;;;;;6.72;100.00;97943.22;4990613;28;20933;-63
2022/10/28 05:41:06;;;;;;;13.63;11.57;;;;;;;6.69;100.00;97952.22;4987223;28;20235;-67
2022/10/28 05:43:34;;;;;;;12.63;11.03;;;;;;;6.69;100.00;97944.31;4982823;28;21583;-63
2022/10/28 05:46:03;;;;;;;15.17;13.00;;;;;;;6.71;100.00;97939.72;4987421;28;20514;-64
2022/10/28 05:48:32;;;;;;;16.00;13.67;;;;;;;6.74;100.00;97942.09;4983930;28;20232;-64
2022/10/28 05:51:00;;;;;;;17.87;13.00;;;;;;;6.67;100.00;97943.63;4983445;28;20204;-66
2022/10/28 05:53:28;;;;;;;19.20;14.90;;;;;;;6.63;100.00;97945.72;4983878;28;20339;-69
2022/10/28 05:55:56;;;;;;;20.57;16.33;;;;;;;6.67;100.00;97943.63;4987931;28;22031;-66
2022/10/28 05:58:25;;;;;;;20.03;15.97;;;;;;;6.75;100.00;97940.28;4982782;28;20597;-66
2022/10/28 06:00:54;;;;;;;24.87;20.10;;;;;;;6.85;100.00;97935.84;4985755;28;20204;-67
2022/10/28 06:03:22;;;;;;;26.67;20.67;;;;;;;6.95;100.00;97941.09;4984016;28;20209;-66
2022/10/28 06:05:57;;;;;;;25.37;21.60;;;;;;;7.08;100.00;97936.31;4986819;28;20198;-62
2022/10/28 06:08:26;;;;;;;29.20;23.57;;;;;;;7.35;100.00;97936.50;4985367;28;20235;-64
2022/10/28 06:10:55;;;;;;;32.17;25.07;;;;;;;7.47;100.00;97939.78;4985214;28;20910;-64
2022/10/28 06:13:24;;;;;;;34.57;25.37;;;;;;;7.64;100.00;97946.09;4983295;28;20623;-64
2022/10/28 06:15:53;;;;;;;35.97;27.40;;;;;;;7.76;100.00;97947.56;4986218;28;20297;-65
2022/10/28 06:18:21;;;;;;;41.67;28.67;;;;;;;7.93;100.00;97945.94;4985205;28;20224;-64
2022/10/28 06:20:54;;;;;;;36.73;28.50;;;;;;;7.94;100.00;97952.06;4987009;28;20230;-67
2022/10/28 06:23:23;;;;;;;37.70;28.97;;;;;;;8.13;100.00;97945.81;4985384;28;20223;-65
2022/10/28 06:25:51;;;;;;;39.40;29.83;;;;;;;8.34;100.00;97957.91;4987065;28;20749;-64
2022/10/28 06:28:19;;;;;;;45.97;33.53;;;;;;;8.50;100.00;97960.72;4984811;28;21555;-66
2022/10/28 06:30:49;;;;;;;49.20;32.70;;;;;;;8.66;100.00;97964.47;4986147;28;20207;-66
2022/10/28 06:33:17;;;;;;;52.50;32.77;;;;;;;8.75;100.00;97962.75;4985500;28;20832;-65
2022/10/28 06:35:45;;;;;;;53.33;34.43;;;;;;;8.78;100.00;97965.91;4987842;28;20231;-62
2022/10/28 06:38:13;;;;;;;52.13;33.73;;;;;;;8.79;100.00;97972.03;4987387;28;20258;-64
2022/10/28 06:40:41;;;;;;;44.20;31.53;;;;;;;8.79;100.00;97969.38;4987210;28;20231;-63
2022/10/28 06:43:11;;;;;;;41.53;31.33;;;;;;;8.80;100.00;97974.53;4986475;28;20263;-64
2022/10/28 06:45:39;;;;;;;46.43;32.80;;;;;;;8.78;100.00;97973.84;4986352;28;20211;-63
2022/10/28 06:48:10;;;;;;;42.00;31.90;;;;;;;8.80;100.00;97978.97;4986512;28;20219;-63
2022/10/28 06:50:38;;;;;;;45.00;30.97;;;;;;;8.83;100.00;97986.59;4985979;28;20204;-66
2022/10/28 06:53:07;;;;;;;48.90;31.53;;;;;;;8.86;100.00;97986.28;4986760;28;20215;-67
2022/10/28 06:55:35;;;;;;;47.93;31.17;;;;;;;8.94;100.00;97985.50;4985820;28;20286;-64
2022/10/28 06:58:04;;;;;;;45.60;28.83;;;;;;;9.06;100.00;97989.56;4986002;28;20220;-67
2022/10/28 07:00:33;;;;;;;45.60;33.90;;;;;;;9.21;100.00;97997.75;4984175;28;20699;-66
2022/10/28 07:03:01;;;;;;;53.37;35.57;;;;;;;9.36;100.00;98002.50;4985889;28;20634;-65
2022/10/28 07:05:31;;;;;;;46.43;31.63;;;;;;;9.59;100.00;98021.31;4985878;28;20506;-63
2022/10/28 07:07:59;;;;;;;47.53;34.57;;;;;;;9.85;100.00;98015.97;4986777;28;21250;-64
2022/10/28 07:10:27;;;;;;;45.00;32.30;;;;;;;9.96;100.00;98022.81;4985311;28;20211;-63
2022/10/28 07:12:56;;;;;;;47.67;33.30;;;;;;;10.24;100.00;98027.03;4983485;28;20399;-65
2022/10/28 07:15:24;;;;;;;43.77;33.53;;;;;;;10.47;100.00;98026.47;4983173;28;20368;-64
2022/10/28 07:17:53;;;;;;;45.87;33.47;;;;;;;10.67;100.00;98034.97;4984077;28;20230;-64
2022/10/28 07:20:22;;;;;;;37.37;31.80;;;;;;;10.77;100.00;98035.63;4984190;28;20227;-66
2022/10/28 07:22:56;;;;;;;45.13;32.67;;;;;;;10.86;100.00;98042.59;4984362;28;20219;-66
2022/10/28 07:25:25;;;;;;;40.60;30.53;;;;;;;11.02;100.00;98053.38;4982868;28;20212;-63
2022/10/28 07:27:53;;;;;;;32.80;28.83;;;;;;;11.19;100.00;98046.25;4983660;28;20258;-64
2022/10/28 07:30:22;;;;;;;33.60;28.23;;;;;;;11.25;100.00;98042.91;4984954;28;20239;-65
2022/10/28 07:32:50;;;;;;;36.93;28.57;;;;;;;11.33;100.00;98029.63;4983369;28;20224;-66
2022/10/28 07:35:20;;;;;;;35.60;27.73;;;;;;;11.26;100.00;98036.59;4984018;28;20215;-67
2022/10/28 07:37:48;;;;;;;31.77;26.10;;;;;;;11.28;100.00;98032.81;4983558;28;20240;-64
2022/10/28 07:40:18;;;;;;;31.17;25.83;;;;;;;11.34;100.00;98031.28;4983304;28;20208;-65
2022/10/28 07:42:46;;;;;;;28.63;24.57;;;;;;;11.26;100.00;98041.91;4983159;28;20196;-65
2022/10/28 07:45:16;;;;;;;29.83;25.00;;;;;;;11.21;100.00;98039.78;4983684;28;20212;-64
2022/10/28 07:47:45;;;;;;;27.20;24.57;;;;;;;11.39;100.00;98036.94;4984360;28;20417;-65
2022/10/28 07:50:13;;;;;;;27.53;23.70;;;;;;;11.50;100.00;98041.06;4984530;28;20429;-66
2022/10/28 07:52:42;;;;;;;23.90;21.57;;;;;;;11.53;100.00;98040.72;4979974;28;20208;-63
2022/10/28 07:55:10;;;;;;;25.73;22.93;;;;;;;11.67;100.00;98051.66;4982050;28;20220;-64
2022/10/28 07:57:40;;;;;;;24.87;22.40;;;;;;;11.62;100.00;98054.81;4984442;28;21859;-63
2022/10/28 08:00:09;;;;;;;24.73;22.13;;;;;;;11.37;100.00;98054.03;4981823;28;20699;-63
2022/10/28 08:02:37;;;;;;;25.47;22.73;;;;;;;11.37;100.00;98052.22;4982329;28;20262;-61
2022/10/28 08:05:06;;;;;;;24.00;21.60;;;;;;;11.63;100.00;98061.75;4983637;28;20211;-63
2022/10/28 08:07:34;;;;;;;24.53;22.13;;;;;;;11.84;100.00;98063.88;4980916;28;20251;-64
2022/10/28 08:10:06;;;;;;;22.80;20.53;;;;;;;11.96;100.00;98060.88;4983400;28;20207;-62
2022/10/28 08:12:35;;;;;;;24.13;21.73;;;;;;;12.20;100.00;98065.28;4982094;28;21487;-63
2022/10/28 08:15:08;;;;;;;22.37;20.37;;;;;;;12.16;100.00;98070.09;4979843;28;20799;-63
2022/10/28 08:17:36;;;;;;;21.07;19.10;;;;;;;12.13;100.00;98067.78;4982462;28;21028;-62
2022/10/28 08:20:05;;;;;;;21.50;19.50;;;;;;;12.14;100.00;98058.81;4983522;28;20204;-62
2022/10/28 08:22:33;;;;;;;24.83;18.57;;;;;;;12.27;100.00;98055.63;4983147;28;20204;-63
2022/10/28 08:25:01;;;;;;;20.33;18.43;;;;;;;12.78;100.00;98042.88;4986765;28;20663;-65
2022/10/28 08:27:30;;;;;;;19.73;17.93;;;;;;;12.98;100.00;98038.72;4985195;28;20224;-64
2022/10/28 08:29:58;;;;;;;19.53;17.93;;;;;;;12.98;100.00;98030.75;4984850;28;20543;-62
2022/10/28 08:32:28;;;;;;;22.50;20.30;;;;;;;12.95;100.00;98035.59;4984461;28;21143;-65
2022/10/28 08:34:56;;;;;;;19.97;18.27;;;;;;;12.98;100.00;98033.41;4984838;28;20210;-64
2022/10/28 08:37:24;;;;;;;20.87;18.77;;;;;;;13.07;100.00;98028.00;4985523;28;20235;-66
2022/10/28 08:39:53;;;;;;;21.87;19.83;;;;;;;12.90;100.00;98027.34;4982564;28;20220;-63
2022/10/28 08:42:31;;;;;;;21.93;20.13;;;;;;;12.66;100.00;98032.63;4982932;28;20258;-63
2022/10/28 08:45:13;;;;;;;21.33;19.23;;;;;;;12.58;100.00;98027.38;4985490;28;20409;-64
2022/10/28 08:47:51;;;;;;;22.03;19.93;;;;;;;12.60;100.00;98025.38;4988395;28;20215;-66
2022/10/28 08:50:22;;;;;;;22.53;20.33;;;;;;;12.70;100.00;98025.13;4989710;28;20204;-64
2022/10/28 08:52:54;;;;;;;21.03;18.93;;;;;;;12.63;100.00;98026.84;4989098;28;20261;-65
2022/10/28 08:55:26;;;;;;;22.50;20.10;;;;;;;12.66;100.00;98023.84;4989085;28;20291;-64
2022/10/28 08:57:57;;;;;;;24.13;21.60;;;;;;;12.71;100.00;98019.66;4986723;28;20236;-61
2022/10/28 09:00:27;;;;;;;21.87;19.97;;;;;;;12.61;100.00;98005.75;4988133;28;20896;-61
2022/10/28 09:03:03;;;;;;;22.83;20.63;;;;;;;12.67;100.00;97989.09;4986568;28;20205;-62
2022/10/28 09:05:31;;;;;;;22.00;20.13;;;;;;;12.84;100.00;97970.34;4986474;28;20207;-62
2022/10/28 09:08:01;;;;;;;22.83;20.53;;;;;;;12.86;100.00;97971.81;4986518;28;20800;-64
2022/10/28 09:10:49;;;;;;;23.07;20.77;;;;;;;12.90;100.00;97964.31;4988339;28;20584;-65
2022/10/28 09:13:24;;;;;;;21.70;19.90;;;;;;;13.16;100.00;97960.44;4987300;28;20228;-65
2022/10/28 09:15:59;;;;;;;22.93;20.87;;;;;;;13.20;100.00;97968.84;4986657;28;20224;-62
2022/10/28 09:18:45;;;;;;;23.77;21.63;;;;;;;13.31;100.00;97963.94;4985455;28;20227;-65
2022/10/28 09:21:17;;;;;;;21.40;19.47;;;;;;;13.57;100.00;97976.00;4987995;28;20813;-64
2022/10/28 09:23:50;;;;;;;21.47;19.23;;;;;;;13.89;100.00;97987.28;4987448;28;20223;-63
2022/10/28 09:26:24;;;;;;;21.23;19.23;;;;;;;14.01;100.00;97982.28;4987939;28;20526;-62
2022/10/28 09:28:59;;;;;;;21.67;19.60;;;;;;;13.85;100.00;97979.84;4988663;28;20214;-62
2022/10/28 09:31:34;;;;;;;20.03;17.57;;;;;;;13.62;100.00;97974.63;4987215;28;20436;-64
2022/10/28 09:34:13;;;;;;;19.27;17.57;;;;;;;14.05;100.00;97980.09;4985115;28;20848;-66
2022/10/28 09:36:43;;;;;;;29.07;26.20;;;;;;;13.79;100.00;97972.59;4988164;28;20730;-65
2022/10/28 09:39:16;;;;;;;20.33;18.33;;;;;;;13.87;100.00;97981.31;4988127;28;20342;-61
2022/10/28 09:41:46;;;;;;;18.40;16.63;;;;;;;14.14;100.00;97978.16;4986867;28;20747;-63
2022/10/28 09:44:17;;;;;;;19.47;17.60;;;;;;;14.33;100.00;97982.84;4986487;28;20767;-64
2022/10/28 09:46:47;;;;;;;21.10;16.57;;;;;;;14.69;100.00;97989.19;4985594;28;20665;-61
2022/10/28 09:49:19;;;;;;;17.53;15.83;;;;;;;14.43;100.00;97989.75;4986688;28;20354;-65
2022/10/28 09:51:50;;;;;;;16.03;14.43;;;;;;;14.65;100.00;97985.25;4986786;28;20215;-64
2022/10/28 09:54:24;;;;;;;15.90;13.90;;;;;;;14.69;100.00;97980.34;4985140;28;20208;-63
2022/10/28 09:56:52;;;;;;;15.00;13.80;;;;;;;14.74;100.00;97977.94;4984433;28;20282;-63
2022/10/28 09:59:20;;;;;;;14.00;12.70;;;;;;;14.94;100.00;97974.66;4984580;28;20508;-65
2022/10/28 10:01:49;;;;;;;13.87;12.47;;;;;;;14.98;100.00;97966.06;4988261;28;20221;-64
2022/10/28 10:04:20;;;;;;;13.20;12.00;;;;;;;14.97;100.00;97967.09;4985971;28;20215;-65
2022/10/28 10:06:51;;;;;;;11.90;10.80;;;;;;;15.09;100.00;97963.88;4986629;28;20333;-67
2022/10/28 10:09:23;;;;;;;11.90;10.80;;;;;;;15.36;100.00;97954.22;4985435;28;20221;-66
2022/10/28 10:11:53;;;;;;;23.67;21.43;;;;;;;15.55;100.00;97941.19;4984182;28;20213;-63
2022/10/28 10:14:25;;;;;;;11.37;10.17;;;;;;;15.63;100.00;97938.34;4984347;28;20257;-63
2022/10/28 10:16:59;;;;;;;10.47;9.20;;;;;;;15.66;100.00;97942.44;4987336;28;20432;-62
2022/10/28 10:19:58;;;;;;;8.93;8.03;;;;;;;16.00;100.00;97936.28;4987890;28;20262;-65
2022/10/28 10:22:30;;;;;;;8.73;7.97;;;;;;;16.13;100.00;97948.03;4987109;28;20638;-65
2022/10/28 10:24:58;;;;;;;10.23;8.07;;;;;;;16.44;100.00;97942.13;4986449;28;20912;-64
2022/10/28 10:27:27;;;;;;;9.07;8.17;;;;;;;16.40;100.00;97948.09;4987189;28;20224;-62
2022/10/28 10:29:56;;;;;;;8.87;7.90;;;;;;;16.39;99.25;97943.78;4986510;28;20244;-66
2022/10/28 10:32:26;;;;;;;7.67;6.87;;;;;;;16.58;96.53;97944.84;4986145;28;20365;-66
2022/10/28 10:35:01;;;;;;;7.43;6.83;;;;;;;16.43;95.22;97940.47;4986002;28;20226;-66
2022/10/28 10:37:30;;;;;;;7.20;6.60;;;;;;;16.08;96.81;97939.78;4986800;28;20863;-65
2022/10/28 10:40:05;;;;;;;7.43;6.83;;;;;;;16.10;95.24;97938.56;4990145;28;20262;-64
2022/10/28 10:42:34;;;;;;;9.63;6.77;;;;;;;16.41;92.23;97942.53;4986786;28;20858;-67
2022/10/28 10:45:24;;;;;;;6.93;5.83;;;;;;;16.50;90.80;97945.84;4986009;28;20638;-64
2022/10/28 10:48:13;;;;;;;7.03;5.63;;;;;;;16.52;90.10;97942.97;4985920;28;20856;-66
2022/10/28 10:50:44;;;;;;;5.80;5.40;;;;;;;16.26;89.50;97934.69;4987130;28;20212;-63
2022/10/28 10:53:24;;;;;;;5.63;5.13;;;;;;;16.35;88.71;97928.13;4986607;28;20312;-63
2022/10/28 10:55:57;;;;;;;7.03;6.40;;;;;;;16.77;87.93;97922.59;4984628;28;20212;-66
2022/10/28 10:58:28;;;;;;;10.77;9.53;;;;;;;16.93;86.54;97910.66;4985237;28;20228;-66
2022/10/28 11:00:58;;;;;;;6.67;5.93;;;;;;;16.97;84.18;97916.44;4985828;28;20261;-64
2022/10/28 11:03:29;;;;;;;7.07;5.87;;;;;;;17.13;83.27;97912.53;4985724;28;20215;-61
2022/10/28 11:06:00;;;;;;;8.30;5.43;;;;;;;17.53;82.16;97906.25;4985631;28;20214;-66
2022/10/28 11:08:49;;;;;;;7.27;5.83;;;;;;;17.90;82.91;97903.84;4984904;28;20394;-67
2022/10/28 11:11:20;;;;;;;5.67;5.27;;;;;;;17.60;80.98;97892.84;4985161;28;20674;-62
2022/10/28 11:13:49;;;;;;;5.67;5.20;;;;;;;17.62;80.78;97888.91;4984845;28;20685;-64
2022/10/28 11:16:19;;;;;;;5.97;5.40;;;;;;;17.93;81.77;97891.88;4985657;28;20298;-64
2022/10/28 11:18:49;;;;;;;7.17;5.20;;;;;;;18.06;79.67;97891.81;4983678;28;20767;-63
2022/10/28 11:21:41;;;;;;;7.10;4.93;;;;;;;18.00;80.04;97889.97;4985531;28;20850;-63
2022/10/28 11:24:30;;;;;;;4.50;4.10;;;;;;;18.08;77.34;97878.22;4985597;28;20297;-64
2022/10/28 11:27:06;;;;;;;6.03;5.30;;;;;;;17.79;76.74;97886.56;4985898;28;21093;-64
2022/10/28 11:29:35;;;;;;;5.87;4.77;;;;;;;17.83;78.07;97881.59;4984848;28;20326;-65
2022/10/28 11:32:15;;;;;;;7.00;5.37;;;;;;;17.69;77.66;97885.38;4984192;28;20298;-63
2022/10/28 11:35:10;;;;;;;7.33;4.47;;;;;;;17.64;78.51;97881.50;4983509;28;20208;-63
2022/10/28 11:37:51;;;;;;;5.33;4.50;;;;;;;17.50;78.16;97877.19;4982464;28;21265;-64